Time;durP1;ratioP1;P1;durP2;ratioP2;P2;SDS_P1;SDS_P2;PMS_P1;PMS_P2;Temp;Humidity;BMP_temperature;BMP_pressure;BME280_temperature;BME280_humidity;BME280_pressure;Samples;Min_cycle;Max_cycle;Signal;HPM_P1;HPM_P2
2021/01/01 00:01:19;;;;;;;105.27;82.30;;;4.10;99.90;;;4.03;74.35;100473.25;5074738;28;20040;-79
2021/01/01 00:03:47;;;;;;;130.10;93.90;;;4.00;99.90;;;4.25;74.11;100517.22;5075002;28;20464;-77
2021/01/01 00:06:15;;;;;;;140.77;96.33;;;4.00;99.90;;;4.15;73.73;100516.19;5075013;28;20052;-75
2021/01/01 00:08:45;;;;;;;225.98;148.93;;;4.00;99.90;;;4.11;74.24;100513.50;5074950;28;20047;-74
2021/01/01 00:11:14;;;;;;;269.50;181.37;;;4.00;99.90;;;4.25;74.26;100512.88;5074604;28;20075;-75
2021/01/01 00:13:42;;;;;;;282.37;195.50;;;4.00;99.90;;;4.47;75.20;100514.94;5074396;28;20399;-77
2021/01/01 00:16:12;;;;;;;267.08;159.35;;;4.20;99.90;;;4.34;75.04;100489.44;5074603;28;20052;-77
2021/01/01 00:18:42;;;;;;;;;;;4.30;99.90;;;4.40;74.23;100513.09;5073753;28;20065;-76
2021/01/01 00:21:11;;;;;;;293.73;148.63;;;4.30;99.90;;;3.49;73.49;100411.38;5074790;28;20352;-70
2021/01/01 00:23:38;;;;;;;281.63;156.90;;;4.10;99.90;;;4.02;73.34;100518.59;5074662;28;20032;-74
2021/01/01 00:26:11;;;;;;;340.77;191.27;;;3.90;99.90;;;3.61;73.68;100512.69;5074406;28;20036;-76
2021/01/01 00:28:44;;;;;;;402.17;220.70;;;3.50;99.90;;;3.49;74.36;100507.22;5074628;28;20048;-76
2021/01/01 00:31:14;;;;;;;291.13;198.93;;;3.40;99.90;;;3.76;74.73;100520.78;5074300;28;20044;-77
2021/01/01 00:33:42;;;;;;;;;;;3.60;99.90;;;3.76;75.55;100509.44;5073687;28;20059;-77
2021/01/01 00:36:12;;;;;;;209.27;135.47;;;3.70;99.90;;;4.08;76.12;100513.47;5072891;28;19925;-85
2021/01/01 00:38:40;;;;;;;218.95;137.70;;;3.90;99.90;;;3.99;76.63;100469.72;5074296;28;20052;-85
2021/01/01 00:41:07;;;;;;;366.83;206.57;;;4.00;99.90;;;4.38;76.39;100522.66;5074692;28;20110;-75
2021/01/01 00:43:35;;;;;;;292.90;172.40;;;4.20;99.90;;;4.56;76.54;100524.66;5073999;28;20186;-73
2021/01/01 00:46:05;;;;;;;650.77;383.60;;;4.40;99.90;;;4.58;75.84;100518.59;5072912;28;20555;-76
2021/01/01 00:48:33;;;;;;;419.05;263.08;;;4.50;99.90;;;4.61;75.60;100522.13;5072996;28;20490;-75
2021/01/01 00:51:00;;;;;;;331.00;226.17;;;4.50;99.90;;;4.36;75.22;100469.41;5074233;28;20505;-74
2021/01/01 00:53:43;;;;;;;303.40;220.43;;;4.50;99.90;;;4.53;74.12;100524.59;5074310;28;20060;-84
2021/01/01 00:56:19;;;;;;;308.33;224.17;;;4.50;99.90;;;4.48;73.92;100526.28;5074318;28;20478;-84
2021/01/01 00:58:49;;;;;;;282.13;209.90;;;4.40;99.90;;;4.38;73.55;100519.16;5074041;28;20048;-75
2021/01/01 01:01:18;;;;;;;260.07;177.70;;;4.30;99.90;;;4.45;74.26;100521.03;5073867;28;20070;-71
2021/01/01 01:03:45;;;;;;;265.37;181.93;;;4.30;99.90;;;4.46;74.55;100533.25;5073563;28;20045;-73
2021/01/01 01:06:13;;;;;;;248.87;167.23;;;4.40;99.90;;;4.66;75.41;100517.81;5073729;28;20073;-75
2021/01/01 01:08:42;;;;;;;249.13;157.27;;;4.50;99.90;;;4.59;75.52;100490.66;5073603;28;20124;-76
2021/01/01 01:11:10;;;;;;;243.30;157.70;;;4.60;99.90;;;4.82;76.14;100517.16;5073603;28;20045;-76
2021/01/01 01:13:38;;;;;;;272.73;193.63;;;4.60;99.90;;;4.83;75.12;100525.03;5072114;28;20087;-80
2021/01/01 01:16:06;;;;;;;275.27;198.73;;;4.70;99.90;;;4.49;73.77;100499.25;5073192;28;20048;-75
2021/01/01 01:18:34;;;;;;;256.73;188.60;;;4.60;99.90;;;4.55;72.66;100530.75;5073236;28;20060;-74
2021/01/01 01:21:01;;;;;;;235.53;167.63;;;4.40;99.90;;;4.47;72.92;100532.41;5073047;28;20409;-77
2021/01/01 01:23:29;;;;;;;227.57;160.23;;;4.30;99.90;;;4.50;73.06;100528.09;5073094;28;20049;-77
2021/01/01 01:26:00;;;;;;;194.23;123.87;;;4.30;99.90;;;4.65;74.40;100540.50;5073338;28;20084;-77
2021/01/01 01:28:28;;;;;;;206.43;134.27;;;4.40;99.90;;;4.74;75.51;100537.13;5072971;28;20444;-77
2021/01/01 01:30:57;;;;;;;201.57;135.03;;;4.50;99.90;;;4.79;75.74;100536.34;5073050;28;20045;-77
2021/01/01 01:33:24;;;;;;;219.37;147.10;;;4.60;99.90;;;4.20;75.39;100422.06;5073207;28;20074;-76
2021/01/01 01:35:52;;;;;;;243.57;174.43;;;4.70;99.90;;;4.64;75.04;100519.53;5073081;28;20094;-77
2021/01/01 01:38:19;;;;;;;237.53;163.30;;;4.70;99.90;;;4.74;74.30;100545.88;5073278;28;20056;-76
2021/01/01 01:40:47;;;;;;;234.30;167.90;;;4.60;99.90;;;4.51;73.26;100537.69;5073064;28;20048;-76
2021/01/01 01:43:15;;;;;;;238.37;164.40;;;4.50;99.90;;;4.33;73.07;100526.06;5072882;28;20041;-77
2021/01/01 01:45:42;;;;;;;208.53;153.80;;;4.40;99.90;;;4.46;73.66;100543.72;5072537;28;20050;-77
2021/01/01 01:48:15;;;;;;;237.17;169.93;;;4.30;99.90;;;3.55;73.27;100476.84;5072788;28;20490;-76
2021/01/01 01:50:43;;;;;;;225.00;162.30;;;4.30;99.90;;;4.29;72.90;100547.81;5072278;28;20080;-75
2021/01/01 01:53:11;;;;;;;224.13;165.40;;;4.20;99.90;;;4.19;72.73;100549.41;5072487;28;20086;-77
2021/01/01 01:55:39;;;;;;;215.50;155.77;;;4.10;99.90;;;4.17;72.32;100552.84;5072761;28;20044;-76
2021/01/01 01:58:06;;;;;;;211.97;149.30;;;4.00;99.90;;;4.07;73.18;100554.44;5072738;28;20044;-76
2021/01/01 02:03:17;;;;;;;180.63;120.93;;;4.00;99.90;;;4.22;74.65;100549.44;5072339;28;20114;-76
2021/01/01 02:05:45;;;;;;;176.47;119.07;;;4.10;99.90;;;4.30;75.07;100547.84;5070925;28;20100;-76
2021/01/01 02:08:13;;;;;;;183.97;119.83;;;4.20;99.90;;;4.48;76.36;100552.47;5072368;28;20032;-77
2021/01/01 02:10:40;;;;;;;166.43;110.10;;;4.30;99.90;;;4.61;76.39;100554.41;5072213;28;20045;-76
2021/01/01 02:13:09;;;;;;;179.93;119.77;;;4.40;99.90;;;4.53;76.64;100530.72;5072451;28;20098;-77
2021/01/01 02:15:37;;;;;;;183.77;122.70;;;4.50;99.90;;;4.66;76.37;100542.28;5072033;28;20552;-76
2021/01/01 02:18:05;;;;;;;165.43;110.60;;;4.60;99.90;;;4.84;76.01;100558.22;5072379;28;20506;-76
2021/01/01 02:20:33;;;;;;;173.97;110.03;;;4.70;99.90;;;4.86;75.93;100555.66;5072331;28;20040;-76
2021/01/01 02:23:02;;;;;;;179.97;111.70;;;4.70;99.90;;;4.89;76.01;100556.56;5072439;28;20094;-76
2021/01/01 02:25:31;;;;;;;171.93;113.30;;;4.80;99.90;;;4.87;75.50;100558.28;5072202;28;20455;-76
2021/01/01 02:27:58;;;;;;;156.73;101.70;;;4.70;99.90;;;4.90;75.87;100560.94;5072257;28;20045;-77
2021/01/01 02:30:26;;;;;;;140.33;94.87;;;4.70;99.90;;;4.75;75.21;100531.91;5072115;28;20053;-75
2021/01/01 02:32:53;;;;;;;136.90;88.10;;;4.70;99.90;;;4.86;75.77;100543.41;5071989;28;20071;-76
2021/01/01 02:35:24;;;;;;;137.00;88.27;;;4.80;99.90;;;5.06;75.55;100559.38;5072383;28;20099;-76
2021/01/01 02:37:52;;;;;;;135.67;85.70;;;4.90;99.90;;;5.13;75.71;100569.97;5070931;28;20452;-77
2021/01/01 02:40:20;;;;;;;135.33;83.43;;;4.90;99.90;;;5.15;75.63;100565.63;5071997;28;20048;-77
2021/01/01 02:42:47;;;;;;;126.70;79.23;;;5.00;99.90;;;5.16;76.06;100564.78;5071968;28;20080;-76
2021/01/01 02:45:15;;;;;;;130.03;79.40;;;5.10;99.90;;;5.22;76.00;100566.59;5072229;28;20044;-77
2021/01/01 02:47:43;;;;;;;122.17;75.83;;;5.10;99.90;;;5.26;75.96;100578.88;5072135;28;20040;-76
2021/01/01 02:50:12;;;;;;;112.40;71.50;;;5.10;99.90;;;5.27;75.63;100572.75;5072154;28;20052;-77
2021/01/01 02:52:40;;;;;;;106.73;66.17;;;5.10;99.90;;;5.14;75.72;100548.16;5070789;28;20068;-77
2021/01/01 02:55:09;;;;;;;108.03;66.93;;;5.10;99.90;;;5.32;75.73;100574.56;5071830;28;20045;-77
2021/01/01 02:57:37;;;;;;;102.93;65.40;;;5.20;99.90;;;5.32;76.08;100569.31;5074516;28;20568;-76
2021/01/01 03:00:07;;;;;;;97.00;60.97;;;5.20;99.90;;;5.19;76.16;100546.44;5076193;28;20044;-77
2021/01/01 03:02:37;;;;;;;89.40;58.47;;;5.20;99.90;;;5.26;75.82;100557.91;5076047;28;20450;-76
2021/01/01 03:05:06;;;;;;;86.93;55.92;;;5.10;99.90;;;5.32;75.64;100573.69;5074818;28;20402;-76
2021/01/01 03:07:33;;;;;;;87.10;55.10;;;5.20;99.90;;;5.32;75.72;100579.81;5076267;28;20045;-77
2021/01/01 03:10:01;;;;;;;81.03;52.67;;;5.10;99.90;;;5.35;76.00;100573.72;5075799;28;20508;-76
2021/01/01 03:12:28;;;;;;;78.03;46.60;;;5.20;99.90;;;5.36;75.97;100565.88;5075629;28;20115;-77
2021/01/01 03:14:59;;;;;;;67.40;44.90;;;5.20;99.90;;;5.35;75.64;100563.22;5075961;28;20082;-77
2021/01/01 03:17:26;;;;;;;64.67;41.53;;;5.20;99.90;;;5.49;75.89;100572.16;5074620;28;20047;-77
2021/01/01 03:19:54;;;;;;;60.07;38.40;;;5.30;99.90;;;5.54;75.97;100570.44;5074315;28;20386;-77
2021/01/01 03:22:21;;;;;;;55.43;37.97;;;5.40;99.90;;;5.56;75.88;100576.59;5075753;28;20071;-77
2021/01/01 03:24:48;;;;;;;54.27;37.07;;;5.40;99.90;;;5.57;75.87;100570.50;5075504;28;20052;-76
2021/01/01 03:27:16;;;;;;;49.57;34.97;;;5.50;99.90;;;5.61;75.83;100571.41;5075662;28;20090;-76
2021/01/01 03:29:43;;;;;;;57.50;35.47;;;5.40;99.90;;;5.44;75.91;100540.63;5075412;28;20083;-76
2021/01/01 03:32:11;;;;;;;57.90;38.07;;;5.40;99.90;;;5.61;76.14;100568.78;5075375;28;20091;-77
2021/01/01 03:34:39;;;;;;;54.40;35.93;;;5.40;99.90;;;5.63;76.03;100573.19;5075285;28;20571;-76
2021/01/01 03:37:06;;;;;;;56.40;36.43;;;5.50;99.90;;;5.60;76.07;100574.88;5075597;28;20076;-77
2021/01/01 03:39:33;;;;;;;60.10;38.93;;;5.40;99.90;;;5.60;75.84;100577.50;5074184;28;20068;-77
2021/01/01 03:42:01;;;;;;;64.17;43.00;;;5.40;99.90;;;5.58;75.46;100569.63;5075404;28;20056;-77
2021/01/01 03:44:28;;;;;;;65.13;43.67;;;5.40;99.90;;;5.55;75.43;100571.31;5075275;28;20052;-77
2021/01/01 03:46:56;;;;;;;65.97;41.03;;;5.40;99.90;;;5.56;75.33;100566.09;5075328;28;20127;-77
2021/01/01 03:49:24;;;;;;;71.90;46.73;;;5.40;99.90;;;5.57;75.38;100570.50;5074877;28;20047;-76
2021/01/01 03:51:51;;;;;;;63.47;41.80;;;5.40;99.90;;;3.46;75.14;100202.25;5075004;28;20041;-77
2021/01/01 03:54:18;;;;;;;63.40;41.10;;;5.30;99.90;;;5.57;75.68;100569.59;5073789;28;20502;-77
2021/01/01 03:56:46;;;;;;;63.97;40.40;;;5.40;99.90;;;5.58;75.85;100573.97;5075149;28;20044;-77
2021/01/01 03:59:13;;;;;;;64.70;39.90;;;5.40;99.90;;;5.59;75.75;100566.13;5074861;28;20059;-76
2021/01/01 04:01:40;;;;;;;59.23;38.17;;;5.40;99.90;;;5.59;75.67;100573.13;5074638;28;20110;-75
2021/01/01 04:04:08;;;;;;;57.43;35.27;;;5.40;99.90;;;5.62;75.86;100575.75;5073663;28;20068;-77
2021/01/01 04:06:36;;;;;;;47.00;31.43;;;5.40;99.90;;;5.62;75.53;100565.28;5074640;28;20051;-77
2021/01/01 04:09:04;;;;;;;46.47;29.77;;;5.50;99.90;;;5.64;75.96;100567.06;5074865;28;20064;-77
2021/01/01 04:11:36;;;;;;;39.00;26.27;;;5.50;99.90;;;5.69;75.69;100565.34;5074615;28;20078;-77
2021/01/01 04:14:04;;;;;;;33.37;24.10;;;5.50;99.90;;;5.39;75.64;100517.84;5074955;28;20355;-77
2021/01/01 04:16:32;;;;;;;40.90;27.00;;;5.50;99.90;;;5.46;76.10;100564.22;5073489;28;20044;-77
2021/01/01 04:19:00;;;;;;;35.47;23.97;;;5.40;99.90;;;5.64;75.88;100558.31;5074480;28;20114;-76
2021/01/01 04:21:27;;;;;;;38.33;23.93;;;5.50;99.90;;;5.63;76.34;100546.94;5074389;28;20041;-77
2021/01/01 04:23:55;;;;;;;37.77;24.33;;;5.50;99.90;;;5.65;76.35;100553.09;5074390;28;20429;-78
2021/01/01 04:26:24;;;;;;;31.23;21.67;;;5.50;99.90;;;5.69;76.31;100560.09;5074362;28;20045;-77
2021/01/01 04:28:51;;;;;;;36.20;22.90;;;5.50;99.90;;;5.60;76.61;100533.78;5074185;28;20552;-77
2021/01/01 04:31:19;;;;;;;35.00;21.70;;;5.60;99.90;;;5.65;76.42;100550.47;5073217;28;20423;-77
2021/01/01 04:33:47;;;;;;;30.83;21.30;;;5.60;99.90;;;5.81;76.60;100575.97;5074478;28;20044;-77
2021/01/01 04:36:14;;;;;;;30.97;21.77;;;5.60;99.90;;;5.83;76.23;100571.66;5074474;28;20053;-77
2021/01/01 04:38:41;;;;;;;29.93;20.50;;;5.60;99.90;;;5.84;76.44;100572.53;5074140;28;20040;-77
2021/01/01 04:41:10;;;;;;;27.73;19.67;;;5.70;99.90;;;5.86;76.35;100570.81;5074116;28;20510;-77
2021/01/01 04:43:38;;;;;;;27.27;19.43;;;5.70;99.90;;;5.89;76.79;100565.59;5074391;28;20701;-77
2021/01/01 04:46:06;;;;;;;29.40;19.73;;;5.70;99.90;;;5.91;76.71;100567.38;5074346;28;20044;-77
2021/01/01 04:48:33;;;;;;;28.53;20.30;;;5.70;99.90;;;5.85;76.48;100564.69;5074207;28;20040;-77
2021/01/01 04:51:01;;;;;;;30.90;19.80;;;5.60;99.90;;;5.80;76.55;100571.59;5073868;28;20044;-77
2021/01/01 04:53:31;;;;;;;28.83;18.93;;;5.60;99.90;;;5.66;76.43;100544.34;5072737;28;20060;-77
2021/01/01 04:55:59;;;;;;;24.20;17.10;;;5.60;99.90;;;5.80;76.42;100563.72;5074077;28;20052;-77
2021/01/01 04:58:27;;;;;;;24.37;17.53;;;5.60;99.90;;;5.83;76.91;100568.09;5074033;28;20036;-78
2021/01/01 05:00:55;;;;;;;25.17;16.43;;;5.60;99.90;;;5.85;77.11;100562.06;5074020;28;20102;-78
2021/01/01 05:03:22;;;;;;;21.67;15.47;;;5.60;99.90;;;5.82;77.10;100576.84;5073728;28;20068;-78
2021/01/01 05:05:50;;;;;;;24.40;15.43;;;5.60;99.90;;;5.88;77.35;100569.97;5072606;28;20493;-77
2021/01/01 05:08:19;;;;;;;20.87;16.17;;;5.70;99.90;;;5.88;77.22;100563.84;5073792;28;20135;-77
2021/01/01 05:10:47;;;;;;;21.70;15.13;;;5.70;99.90;;;5.89;77.25;100569.09;5073521;28;20048;-77
2021/01/01 05:13:17;;;;;;;22.93;15.30;;;5.70;99.90;;;5.85;77.20;100562.06;5073764;28;20051;-77
2021/01/01 05:15:47;;;;;;;18.67;14.75;;;5.70;99.90;;;5.96;77.61;100573.53;5073434;28;20468;-77
2021/01/01 05:18:20;;;;;;;21.77;15.15;;;5.70;99.90;;;5.98;77.38;100570.94;5073441;28;20048;-77
2021/01/01 05:20:48;;;;;;;20.53;14.33;;;5.80;99.90;;;5.99;77.35;100570.94;5073303;28;20106;-77
2021/01/01 05:23:21;;;;;;;22.23;15.87;;;5.80;99.90;;;6.03;77.08;100571.84;5073325;28;20069;-77
2021/01/01 05:26:08;;;;;;;19.97;15.00;;;5.80;99.90;;;6.03;76.86;100582.34;5072161;28;20110;-77
2021/01/01 05:28:59;;;;;;;20.17;15.27;;;5.90;99.90;;;6.01;76.77;100569.22;5072129;28;20049;-76
2021/01/01 05:31:29;;;;;;;18.40;14.13;;;5.80;99.90;;;5.93;76.65;100573.50;5073124;28;20048;-77
2021/01/01 05:34:01;;;;;;;20.23;14.25;;;5.90;99.90;;;5.95;76.59;100557.78;5073364;28;20049;-77
2021/01/01 05:36:36;;;;;;;18.93;13.70;;;5.90;99.90;;;6.12;76.73;100580.69;5073024;28;20087;-78
2021/01/01 05:39:07;;;;;;;15.43;13.03;;;5.90;99.90;;;6.17;76.49;100586.88;5072023;28;20044;-77
2021/01/01 05:41:38;;;;;;;17.97;13.40;;;5.90;99.90;;;6.03;76.35;100556.09;5071911;28;20048;-77
2021/01/01 05:44:14;;;;;;;15.95;13.25;;;6.00;99.90;;;5.96;76.35;100555.16;5073347;28;20437;-77
2021/01/01 05:47:04;;;;;;;19.77;13.70;;;6.00;99.90;;;6.19;76.34;100592.13;5073127;28;20055;-76
2021/01/01 05:49:39;;;;;;;21.43;16.63;;;6.00;99.90;;;5.98;76.23;100561.28;5072936;28;20143;-77
2021/01/01 05:52:10;;;;;;;21.70;16.87;;;5.90;99.90;;;6.14;76.09;100597.31;5071700;28;20102;-77
2021/01/01 05:54:39;;;;;;;27.93;18.17;;;5.90;99.90;;;5.96;76.16;100572.66;5072729;28;20044;-76
2021/01/01 05:57:09;;;;;;;22.70;16.90;;;5.90;99.90;;;6.10;76.27;100599.91;5072653;28;20048;-77
2021/01/01 05:59:39;;;;;;;23.27;17.63;;;5.90;99.90;;;6.10;76.35;100599.91;5072857;28;20036;-77
2021/01/01 06:02:10;;;;;;;21.88;15.05;;;5.90;99.90;;;5.78;76.20;100548.84;5071617;28;20071;-77
2021/01/01 06:04:38;;;;;;;;;;;5.90;99.90;;;6.11;76.32;100601.69;5073289;28;20055;-77
2021/01/01 06:07:07;;;;;;;15.57;12.57;;;5.90;99.90;;;6.08;76.67;100602.50;5072765;28;19927;-77
2021/01/01 06:09:36;;;;;;;17.27;13.03;;;5.90;99.90;;;6.04;76.56;100600.72;5072381;28;20040;-77
2021/01/01 06:12:07;;;;;;;18.80;13.67;;;5.80;99.90;;;6.00;76.62;100592.81;5072382;28;20121;-77
2021/01/01 06:14:40;;;;;;;22.63;14.38;;;5.80;99.90;;;5.95;76.76;100584.91;5071053;28;20056;-77
2021/01/01 06:17:33;;;;;;;22.90;17.20;;;5.80;99.90;;;5.98;76.94;100605.91;5072634;28;20048;-77
2021/01/01 06:20:01;;;;;;;19.53;13.83;;;5.80;99.90;;;5.96;76.93;100605.00;5072570;28;20060;-77
2021/01/01 06:22:30;;;;;;;24.70;15.63;;;5.70;99.90;;;5.97;77.02;100601.53;5072602;28;20048;-78
2021/01/01 06:24:59;;;;;;;22.47;15.53;;;5.80;99.90;;;5.85;77.10;100571.66;5072272;28;20048;-78
2021/01/01 06:27:28;;;;;;;16.40;13.50;;;5.80;99.90;;;6.04;77.12;100605.13;5072325;28;20040;-77
2021/01/01 06:29:58;;;;;;;18.73;13.27;;;5.80;99.90;;;6.03;77.24;100613.84;5072023;28;20048;-75
2021/01/01 06:32:31;;;;;;;16.80;12.80;;;5.80;99.90;;;6.03;77.05;100608.59;5072186;28;20556;-76
2021/01/01 06:35:12;;;;;;;18.77;14.30;;;5.90;99.90;;;6.02;77.24;100610.31;5071055;28;20048;-78
2021/01/01 06:37:42;;;;;;;17.03;13.07;;;5.80;99.90;;;6.05;77.08;100610.38;5072668;28;20049;-77
2021/01/01 06:40:33;;;;;;;16.58;10.27;;;5.80;99.90;;;6.01;77.16;100608.59;5072582;28;20044;-78
2021/01/01 06:43:03;;;;;;;13.90;9.73;;;5.80;99.90;;;5.92;77.04;100594.50;5071989;28;20090;-78
2021/01/01 06:45:48;;;;;;;13.88;10.05;;;5.90;99.90;;;6.06;76.81;100629.59;5072240;28;20379;-78
2021/01/01 06:48:37;;;;;;;15.37;11.23;;;5.90;99.90;;;6.02;77.29;100627.84;5072291;28;20051;-78
2021/01/01 06:51:14;;;;;;;13.70;10.27;;;5.80;99.90;;;5.97;77.37;100624.28;5072166;28;20101;-78
2021/01/01 06:53:43;;;;;;;12.37;9.37;;;5.80;99.90;;;5.88;77.22;100609.34;5071651;28;20520;-78
2021/01/01 06:56:12;;;;;;;13.37;10.87;;;5.80;99.90;;;5.72;77.06;100580.25;5072166;28;20391;-77
2021/01/01 06:58:40;;;;;;;14.83;11.30;;;5.80;99.90;;;5.92;77.12;100623.38;5070854;28;20040;-77
2021/01/01 07:01:15;;;;;;;11.67;10.47;;;5.80;99.90;;;5.99;77.59;100630.44;5071862;28;20114;-77
2021/01/01 07:03:44;;;;;;;15.60;10.90;;;5.80;99.90;;;5.94;77.57;100634.75;5072169;28;20052;-76
2021/01/01 07:06:42;;;;;;;14.10;11.27;;;5.80;99.90;;;6.00;77.83;100634.81;5072059;28;20078;-77
2021/01/01 07:09:12;;;;;;;13.30;11.40;;;5.80;99.90;;;6.05;77.87;100638.38;5049416;28;20041;-77
2021/01/01 07:11:44;;;;;;;15.27;12.32;;;5.80;99.90;;;5.96;77.73;100612.03;5062568;28;20071;-76
2021/01/01 07:14:22;;;;;;;13.90;11.40;;;5.90;99.90;;;6.15;77.60;100645.47;5072108;28;20115;-78
2021/01/01 07:16:55;;;;;;;12.23;10.17;;;5.90;99.90;;;6.20;77.72;100649.91;5071843;28;20549;-77
2021/01/01 07:19:23;;;;;;;11.33;10.07;;;6.00;99.90;;;6.22;77.34;100648.16;5071835;28;20136;-77
2021/01/01 07:21:51;;;;;;;10.67;9.60;;;6.00;99.90;;;6.26;77.20;100655.22;5071425;28;20048;-76
2021/01/01 07:24:19;;;;;;;12.33;9.90;;;6.10;99.90;;;6.28;77.16;100644.72;5071852;28;20072;-76
2021/01/01 07:26:46;;;;;;;12.00;9.13;;;6.10;99.90;;;6.28;77.08;100648.22;5071790;28;20106;-77
2021/01/01 07:29:13;;;;;;;12.40;9.40;;;6.10;99.90;;;6.31;77.02;100649.97;5071494;28;20098;-77
2021/01/01 07:31:46;;;;;;;11.70;9.27;;;6.10;99.90;;;6.28;77.00;100657.84;5070449;28;20056;-76
2021/01/01 07:34:14;;;;;;;14.00;9.70;;;6.10;99.90;;;6.25;77.19;100642.94;5071838;28;20394;-76
2021/01/01 07:36:42;;;;;;;12.67;8.70;;;6.10;99.90;;;6.30;77.15;100657.00;5071431;28;20051;-77
2021/01/01 07:39:10;;;;;;;10.03;9.03;;;6.10;99.90;;;6.30;77.01;100654.38;5071701;28;20106;-76
2021/01/01 07:41:37;;;;;;;12.00;9.00;;;6.10;99.90;;;6.33;77.12;100645.63;5072253;28;20044;-77
2021/01/01 07:44:05;;;;;;;11.80;9.37;;;6.10;99.90;;;6.36;76.85;100656.19;5075593;28;20088;-77
2021/01/01 07:46:36;;;;;;;9.50;8.60;;;6.20;99.90;;;6.39;76.85;100656.19;5075398;28;20045;-77
2021/01/01 07:49:03;;;;;;;10.55;9.32;;;6.20;99.90;;;6.41;76.69;100664.09;5075346;28;20074;-76
2021/01/01 07:51:31;;;;;;;11.10;9.23;;;6.20;99.90;;;6.35;76.78;100651.78;5074018;28;20201;-76
2021/01/01 07:54:14;;;;;;;11.60;9.37;;;6.20;99.90;;;6.36;76.63;100650.91;5107881;28;20139;-76
2021/01/01 07:56:42;;;;;;;11.93;9.33;;;6.20;99.90;;;6.03;76.81;100598.97;5074598;28;20049;-77
2021/01/01 07:59:10;;;;;;;12.77;9.93;;;6.20;99.90;;;6.20;76.94;100631.53;5075146;28;20044;-77
2021/01/01 08:01:38;;;;;;;14.23;10.70;;;6.10;99.90;;;6.34;77.20;100661.41;5075079;28;20049;-77
2021/01/01 08:04:13;;;;;;;14.07;10.80;;;6.10;99.90;;;6.32;77.64;100660.53;5074680;28;20075;-77
2021/01/01 08:06:41;;;;;;;14.80;10.23;;;6.20;99.90;;;6.14;77.89;100628.81;5074764;28;20036;-77
2021/01/01 08:09:09;;;;;;;13.57;10.23;;;6.10;99.90;;;6.39;78.27;100657.06;5074653;28;20114;-76
2021/01/01 08:11:37;;;;;;;13.00;10.40;;;6.20;99.90;;;6.45;78.44;100661.50;5074967;28;20499;-77
2021/01/01 08:14:05;;;;;;;15.27;10.00;;;6.20;99.90;;;6.55;78.12;100667.72;5075335;28;20395;-77
2021/01/01 08:16:33;;;;;;;14.03;10.80;;;6.30;99.90;;;6.58;78.21;100665.97;5075105;28;20458;-76
2021/01/01 08:19:00;;;;;;;15.77;11.23;;;6.30;99.90;;;6.65;78.11;100674.81;5074252;28;20083;-76
2021/01/01 08:21:28;;;;;;;15.50;11.97;;;6.40;99.90;;;6.69;78.06;100676.59;5074642;28;20123;-77
2021/01/01 08:24:07;;;;;;;17.70;12.87;;;6.50;99.90;;;6.73;78.21;100673.13;5073333;28;20060;-75
2021/01/01 08:26:38;;;;;;;15.53;11.33;;;6.50;99.90;;;6.67;78.18;100652.06;5074291;28;20045;-76
2021/01/01 08:29:09;;;;;;;17.93;12.63;;;6.70;99.90;;;6.93;77.92;100684.69;5073285;28;20154;-77
2021/01/01 08:31:38;;;;;;;17.93;13.53;;;6.70;99.90;;;6.97;77.60;100689.94;5074320;28;20032;-77
2021/01/01 08:34:06;;;;;;;19.50;14.13;;;6.80;99.90;;;7.01;77.59;100686.47;5074266;28;20531;-76
2021/01/01 08:36:35;;;;;;;18.87;13.67;;;6.80;99.90;;;7.03;77.35;100689.09;5074218;28;20052;-77
2021/01/01 08:39:09;;;;;;;16.73;13.53;;;6.90;99.90;;;7.00;77.68;100697.00;5074413;28;20072;-77
2021/01/01 08:41:45;;;;;;;16.83;11.80;;;6.80;99.90;;;6.94;77.60;100694.31;5073164;28;20070;-76
2021/01/01 08:44:16;;;;;;;14.43;11.40;;;6.80;99.90;;;6.92;78.07;100696.03;5074348;28;20064;-76
2021/01/01 08:46:44;;;;;;;15.75;11.68;;;6.70;99.90;;;6.88;78.57;100700.41;5072640;28;20147;-76
2021/01/01 08:49:19;;;;;;;20.17;14.37;;;6.70;99.90;;;6.90;79.29;100705.66;5073772;28;20040;-76
2021/01/01 08:51:47;;;;;;;19.77;13.63;;;6.70;99.90;;;6.96;79.07;100708.34;5072854;28;20044;-76
2021/01/01 08:54:34;;;;;;;18.13;12.30;;;6.70;99.90;;;6.98;79.40;100698.72;5073194;28;20059;-76
2021/01/01 08:57:04;;;;;;;19.13;12.77;;;6.80;99.90;;;7.03;79.27;100705.78;5073631;28;20417;-75
2021/01/01 08:59:32;;;;;;;18.90;12.93;;;6.90;99.90;;;7.13;79.22;100711.97;5073927;28;20158;-73
2021/01/01 09:02:00;;;;;;;17.60;12.27;;;6.90;99.90;;;7.06;79.75;100712.81;5073534;28;20044;-73
2021/01/01 09:04:30;;;;;;;16.17;12.57;;;6.90;99.90;;;7.11;79.70;100704.09;5073809;28;20048;-72
2021/01/01 09:07:02;;;;;;;21.67;12.43;;;6.90;99.90;;;7.27;79.76;100721.72;5073813;28;20044;-72
2021/01/01 09:09:33;;;;;;;16.30;12.27;;;7.00;99.90;;;6.45;79.54;100587.06;5073650;28;20056;-75
2021/01/01 09:12:19;;;;;;;16.23;11.88;;;7.00;99.90;;;7.28;79.63;100712.06;5072416;28;20079;-75
2021/01/01 09:14:50;;;;;;;17.70;12.93;;;7.10;99.90;;;7.39;79.85;100722.66;5073200;28;20048;-74
2021/01/01 09:17:20;;;;;;;16.23;12.25;;;7.20;99.90;;;7.48;79.07;100722.72;5073363;28;20091;-73
2021/01/01 09:19:48;;;;;;;16.48;12.57;;;7.30;99.90;;;7.47;79.10;100715.69;5073168;28;20052;-74
2021/01/01 09:22:18;;;;;;;18.10;12.43;;;7.30;99.90;;;7.51;78.98;100720.97;5073175;28;20048;-74
2021/01/01 09:24:47;;;;;;;16.17;12.37;;;7.40;99.90;;;7.60;79.20;100726.31;5073431;28;20052;-75
2021/01/01 09:27:21;;;;;;;18.73;12.07;;;7.40;99.90;;;7.62;78.66;100721.94;5073031;28;20044;-77
2021/01/01 09:29:49;;;;;;;17.43;12.20;;;7.40;99.90;;;7.65;78.70;100721.94;5073197;28;20139;-75
2021/01/01 09:32:16;;;;;;;17.03;12.00;;;7.50;99.90;;;7.66;78.56;100715.81;5071938;28;20055;-76
2021/01/01 09:34:44;;;;;;;19.60;13.77;;;7.60;99.90;;;7.74;78.76;100736.91;5073248;28;20444;-76
2021/01/01 09:37:11;;;;;;;18.80;12.47;;;7.50;99.90;;;7.70;78.23;100729.88;5071866;28;20517;-76
2021/01/01 09:39:39;;;;;;;16.90;13.10;;;7.60;99.90;;;7.74;78.38;100729.00;5072915;28;20059;-76
2021/01/01 09:42:07;;;;;;;18.03;12.37;;;7.60;99.90;;;7.82;78.17;100735.19;5071539;28;20052;-75
2021/01/01 09:44:35;;;;;;;18.30;12.63;;;7.60;99.90;;;7.83;77.65;100735.19;5072632;28;20044;-74
2021/01/01 09:47:03;;;;;;;15.83;11.83;;;7.60;99.90;;;7.77;77.73;100734.28;5071644;28;20496;-69
2021/01/01 09:49:31;;;;;;;17.93;12.67;;;7.60;99.90;;;7.54;77.67;100705.22;5072490;28;20565;-73
2021/01/01 09:51:58;;;;;;;17.20;12.67;;;7.60;99.90;;;7.69;77.45;100715.81;5073162;28;20048;-72
2021/01/01 09:54:38;;;;;;;17.17;12.40;;;7.70;99.90;;;7.89;77.71;100752.75;5072726;28;20048;-73
2021/01/01 09:57:06;;;;;;;18.47;13.17;;;7.70;99.90;;;7.93;77.50;100746.63;5072507;28;20081;-74
2021/01/01 09:59:33;;;;;;;19.27;12.63;;;7.80;99.90;;;7.28;77.78;100636.66;5072775;28;20048;-87
2021/01/01 10:02:02;;;;;;;17.38;12.68;;;7.80;99.90;;;7.97;77.00;100744.03;5072465;28;20044;-87
2021/01/01 10:04:29;;;;;;;17.73;13.25;;;7.80;99.90;;;8.02;77.09;100749.28;5072651;28;20048;-87
2021/01/01 10:06:57;;;;;;;22.03;14.03;;;7.90;99.90;;;8.05;77.08;100757.22;5072461;28;20044;-86
2021/01/01 10:09:24;;;;;;;16.27;13.23;;;7.90;99.90;;;7.89;77.08;100753.66;5072323;28;20048;-85
2021/01/01 10:11:52;;;;;;;18.48;12.93;;;7.70;99.90;;;7.94;77.81;100745.75;5072697;28;20047;-86
2021/01/01 10:14:19;;;;;;;17.73;12.32;;;7.70;99.90;;;7.99;77.53;100747.53;5072289;28;20056;-74
2021/01/01 10:16:49;;;;;;;16.05;9.93;;;7.80;99.90;;;8.02;77.93;100749.28;5072243;28;20052;-70
2021/01/01 10:19:17;;;;;;;23.03;10.80;;;7.90;99.90;;;7.99;77.70;100752.78;5071956;28;20505;-71
2021/01/01 10:21:45;;;;;;;14.85;8.82;;;7.80;99.90;;;8.07;77.84;100750.22;5071036;28;20567;-72
2021/01/01 10:24:12;;;;;;;15.43;9.70;;;7.90;99.90;;;8.23;77.58;100755.53;5072348;28;20040;-78